Time;durP1;ratioP1;P1;durP2;ratioP2;P2;SDS_P1;SDS_P2;PMS_P1;PMS_P2;Temp;Humidity;BMP_temperature;BMP_pressure;BME280_temperature;BME280_humidity;BME280_pressure;Samples;Min_cycle;Max_cycle;Signal;HPM_P1;HPM_P2
2023/07/07 00:00:47;;;;;;;5.95;3.67;;;10.00;97.10;;;;;;4974277;28;20511;-77
2023/07/07 00:03:13;;;;;;;5.57;3.30;;;10.00;96.90;;;;;;4956920;28;20030;-77
2023/07/07 00:05:43;;;;;;;4.95;3.33;;;10.00;96.70;;;;;;4974403;28;20018;-76
2023/07/07 00:08:09;;;;;;;7.10;4.20;;;9.90;96.90;;;;;;4974398;28;20042;-76
2023/07/07 00:10:34;;;;;;;5.32;4.00;;;9.90;97.00;;;;;;4974216;28;21622;-76
2023/07/07 00:13:00;;;;;;;5.63;3.55;;;9.90;97.00;;;;;;4973733;28;20037;-76
2023/07/07 00:15:26;;;;;;;6.13;3.25;;;9.90;97.00;;;;;;4972919;28;20031;-76
2023/07/07 00:17:51;;;;;;;5.28;3.72;;;9.90;97.10;;;;;;4973781;28;20038;-76
2023/07/07 00:20:17;;;;;;;5.07;3.08;;;9.90;97.10;;;;;;5000507;23;20554;-77
2023/07/07 00:22:44;;;;;;;8.45;3.03;;;9.80;97.10;;;;;;4956923;28;20022;-78
2023/07/07 00:25:10;;;;;;;5.30;3.10;;;9.80;97.10;;;;;;4973143;28;20015;-78
2023/07/07 00:27:37;;;;;;;4.95;2.90;;;9.80;97.10;;;;;;4973673;28;20033;-78
2023/07/07 00:30:03;;;;;;;4.50;2.60;;;9.80;97.30;;;;;;4972282;28;20038;-77
2023/07/07 00:32:31;;;;;;;5.97;3.38;;;9.70;97.40;;;;;;4973261;28;20391;-77
2023/07/07 00:34:56;;;;;;;3.72;2.70;;;9.70;97.50;;;;;;4971093;28;20019;-77
2023/07/07 00:37:22;;;;;;;4.40;2.85;;;9.60;97.70;;;;;;4971759;28;20022;-77
2023/07/07 00:39:48;;;;;;;4.10;2.78;;;9.60;97.90;;;;;;4972732;28;20035;-77
2023/07/07 00:42:14;;;;;;;6.28;3.22;;;9.60;97.90;;;;;;4956362;28;20026;-78
2023/07/07 00:45:01;;;;;;;4.90;3.20;;;9.50;98.10;;;;;;4973153;28;20049;-77
2023/07/07 00:47:27;;;;;;;4.47;3.03;;;9.50;98.20;;;;;;4966426;28;20567;-77
2023/07/07 00:49:53;;;;;;;5.70;3.30;;;9.50;98.30;;;;;;4972723;28;20023;-78
2023/07/07 00:52:19;;;;;;;4.63;2.63;;;9.50;98.10;;;;;;4973098;28;20031;-77
2023/07/07 00:54:44;;;;;;;6.78;2.80;;;9.40;98.10;;;;;;4973411;28;20022;-77
2023/07/07 00:57:10;;;;;;;4.10;2.63;;;9.40;98.40;;;;;;4955588;28;20046;-79
2023/07/07 00:59:40;;;;;;;4.38;2.60;;;9.50;98.60;;;;;;4973217;28;20372;-79
2023/07/07 01:02:13;;;;;;;5.03;2.97;;;9.40;98.80;;;;;;4966772;28;20093;-80
2023/07/07 01:04:42;;;;;;;4.15;2.90;;;9.40;98.70;;;;;;4972797;28;20118;-79
2023/07/07 01:07:28;;;;;;;5.50;3.65;;;9.40;98.70;;;;;;4972757;28;20515;-79
2023/07/07 01:09:54;;;;;;;6.07;3.17;;;9.40;98.80;;;;;;4972518;28;20084;-79
2023/07/07 01:12:19;;;;;;;5.70;3.05;;;9.40;98.50;;;;;;4972729;28;20022;-78
2023/07/07 01:14:47;;;;;;;6.03;3.55;;;9.40;98.30;;;;;;4972844;28;20046;-78
2023/07/07 01:17:37;;;;;;;5.25;3.50;;;9.40;98.00;;;;;;4955345;28;20050;-79
2023/07/07 01:20:18;;;;;;;7.00;2.70;;;9.30;98.20;;;;;;5003964;23;20054;-77
2023/07/07 01:23:11;;;;;;;5.40;2.95;;;9.30;98.20;;;;;;4974956;28;20105;-78
2023/07/07 01:25:55;;;;;;;4.03;2.63;;;9.30;98.20;;;;;;4974992;28;20022;-78
2023/07/07 01:28:53;;;;;;;5.07;3.47;;;9.20;98.50;;;;;;4974698;28;20046;-78
2023/07/07 01:31:50;;;;;;;4.78;3.38;;;9.20;99.00;;;;;;4966701;28;20022;-78
2023/07/07 01:34:16;;;;;;;4.90;3.58;;;9.20;99.20;;;;;;4954878;28;20396;-79
2023/07/07 01:36:42;;;;;;;5.00;2.97;;;9.20;99.10;;;;;;4972064;28;20043;-78
2023/07/07 01:39:10;;;;;;;4.75;2.90;;;9.20;98.80;;;;;;4972225;28;20022;-78
2023/07/07 01:41:49;;;;;;;8.25;2.95;;;9.20;99.00;;;;;;4970889;28;20025;-77
2023/07/07 01:44:30;;;;;;;3.97;2.50;;;9.10;99.20;;;;;;4972447;28;20476;-77
2023/07/07 01:46:58;;;;;;;5.93;3.15;;;9.10;99.10;;;;;;4972557;28;20038;-77
2023/07/07 01:49:37;;;;;;;6.85;3.17;;;9.20;99.10;;;;;;4972043;28;20105;-77
2023/07/07 01:52:06;;;;;;;6.18;2.70;;;9.10;99.20;;;;;;4971802;28;20027;-77
2023/07/07 01:54:36;;;;;;;4.38;2.88;;;9.10;99.30;;;;;;4971486;28;20042;-77
2023/07/07 01:57:03;;;;;;;7.05;2.90;;;9.10;99.50;;;;;;4971596;28;20034;-77
2023/07/07 01:59:30;;;;;;;3.42;2.80;;;9.10;99.50;;;;;;4972239;28;20019;-78
2023/07/07 02:01:56;;;;;;;5.97;3.97;;;9.00;99.40;;;;;;4971861;28;20030;-78
2023/07/07 02:04:22;;;;;;;4.68;2.50;;;9.00;99.50;;;;;;4971856;28;20066;-77
2023/07/07 02:06:48;;;;;;;4.35;2.50;;;9.00;99.60;;;;;;4972178;28;20033;-77
2023/07/07 02:09:14;;;;;;;3.97;2.78;;;9.00;99.90;;;;;;4954345;28;20027;-77
2023/07/07 02:11:40;;;;;;;4.40;2.95;;;9.00;99.50;;;;;;4971358;28;20154;-78
2023/07/07 02:14:05;;;;;;;4.57;3.05;;;9.00;99.20;;;;;;4955127;28;20035;-77
2023/07/07 02:16:31;;;;;;;4.00;2.65;;;9.00;99.30;;;;;;4971756;28;20035;-78
2023/07/07 02:18:57;;;;;;;4.65;3.03;;;8.90;99.50;;;;;;4993991;23;20047;-79
2023/07/07 02:21:22;;;;;;;5.18;3.10;;;8.90;99.70;;;;;;4991034;28;20026;-80
2023/07/07 02:23:49;;;;;;;4.32;2.83;;;8.90;99.80;;;;;;4974103;28;20034;-78
2023/07/07 02:26:18;;;;;;;4.03;2.97;;;8.90;99.80;;;;;;4991324;28;20475;-80
2023/07/07 02:28:44;;;;;;;5.05;3.35;;;8.80;99.90;;;;;;4991335;28;20019;-79
2023/07/07 02:31:10;;;;;;;3.92;2.83;;;8.80;99.90;;;;;;4991009;28;20085;-80
2023/07/07 02:33:36;;;;;;;6.25;3.53;;;8.80;99.90;;;;;;4990681;28;20019;-80
2023/07/07 02:36:04;;;;;;;3.85;2.58;;;8.80;99.90;;;;;;4990818;28;20109;-79
2023/07/07 02:38:30;;;;;;;7.15;3.47;;;8.90;99.70;;;;;;4991033;28;20018;-78
2023/07/07 02:40:57;;;;;;;5.35;2.97;;;8.90;99.90;;;;;;4990275;28;20026;-79
2023/07/07 02:43:23;;;;;;;4.57;2.90;;;8.80;99.80;;;;;;4991124;28;20025;-80
2023/07/07 02:45:49;;;;;;;6.35;3.00;;;8.80;99.90;;;;;;4990711;28;20053;-80
2023/07/07 02:48:17;;;;;;;4.28;2.78;;;8.70;99.90;;;;;;4990818;28;20523;-79
2023/07/07 02:50:42;;;;;;;6.65;3.70;;;8.80;99.90;;;;;;4991063;28;20014;-78
2023/07/07 02:53:08;;;;;;;4.78;3.40;;;8.70;99.90;;;;;;4975962;28;20068;-79
2023/07/07 02:55:34;;;;;;;5.10;3.90;;;8.70;99.90;;;;;;4994336;28;20069;-78
2023/07/07 02:58:01;;;;;;;7.15;2.67;;;8.60;99.90;;;;;;4977294;28;20112;-78
2023/07/07 03:00:28;;;;;;;4.85;3.22;;;8.60;99.90;;;;;;4994705;28;20034;-78
2023/07/07 03:02:54;;;;;;;4.13;2.80;;;8.70;99.90;;;;;;4994707;28;20030;-78
2023/07/07 03:05:19;;;;;;;4.30;2.95;;;8.60;99.90;;;;;;4994888;28;20356;-78
2023/07/07 03:07:45;;;;;;;5.32;4.50;;;8.70;99.90;;;;;;4977388;28;20109;-78
2023/07/07 03:10:11;;;;;;;5.28;2.97;;;8.70;99.90;;;;;;4994280;28;20034;-78
2023/07/07 03:12:36;;;;;;;6.05;3.95;;;8.70;99.90;;;;;;4994352;28;20014;-78
2023/07/07 03:15:04;;;;;;;4.60;3.25;;;8.70;99.90;;;;;;4994522;28;20403;-78
2023/07/07 03:17:31;;;;;;;4.72;2.92;;;8.70;99.90;;;;;;4994355;28;20479;-79
2023/07/07 03:19:56;;;;;;;5.38;3.55;;;8.70;99.90;;;;;;5006264;23;20042;-83
2023/07/07 03:22:22;;;;;;;5.05;3.30;;;8.70;99.90;;;;;;4974604;28;20023;-82
2023/07/07 03:24:50;;;;;;;7.60;3.70;;;8.70;99.90;;;;;;4974686;28;20252;-83
2023/07/07 03:27:16;;;;;;;7.82;3.53;;;8.70;99.90;;;;;;4974475;28;20018;-82
2023/07/07 03:29:42;;;;;;;8.15;4.30;;;8.70;99.90;;;;;;4974584;28;20550;-82
2023/07/07 03:32:08;;;;;;;5.95;3.50;;;8.60;99.90;;;;;;4974603;28;20058;-83
2023/07/07 03:34:36;;;;;;;6.10;3.90;;;8.60;99.90;;;;;;4974674;28;20019;-83
2023/07/07 03:37:02;;;;;;;6.22;3.28;;;8.60;99.90;;;;;;4974838;28;20137;-83
2023/07/07 03:39:28;;;;;;;6.68;3.65;;;8.60;99.90;;;;;;4974202;28;20034;-83
2023/07/07 03:41:53;;;;;;;5.38;3.03;;;8.60;99.90;;;;;;4973581;28;20031;-82
2023/07/07 03:44:19;;;;;;;8.35;3.63;;;8.50;99.90;;;;;;4967890;28;20065;-83
2023/07/07 03:46:45;;;;;;;5.88;2.75;;;8.50;99.90;;;;;;4957163;28;20034;-83
2023/07/07 03:49:10;;;;;;;6.15;3.60;;;8.50;99.90;;;;;;4974065;28;20464;-83
2023/07/07 03:51:37;;;;;;;7.97;3.67;;;8.50;99.90;;;;;;4974519;28;20085;-83
2023/07/07 03:54:04;;;;;;;6.43;3.80;;;8.60;99.90;;;;;;4956778;28;21132;-82
2023/07/07 03:56:29;;;;;;;5.38;2.90;;;8.60;99.90;;;;;;4973586;28;20384;-82
2023/07/07 03:58:55;;;;;;;7.60;3.28;;;8.60;99.90;;;;;;4974237;28;20023;-82
2023/07/07 04:01:21;;;;;;;7.65;3.55;;;8.50;99.90;;;;;;4973859;28;20384;-82
2023/07/07 04:03:47;;;;;;;5.43;3.35;;;8.50;99.90;;;;;;4973323;28;20029;-83
2023/07/07 04:06:15;;;;;;;5.10;3.42;;;8.40;99.90;;;;;;4973883;28;20018;-82
2023/07/07 04:08:40;;;;;;;5.38;3.17;;;8.50;99.90;;;;;;4973713;28;20112;-82
2023/07/07 04:11:11;;;;;;;7.82;3.38;;;8.50;99.90;;;;;;4973214;28;20187;-83
2023/07/07 04:13:38;;;;;;;5.55;2.97;;;8.40;99.90;;;;;;4956284;28;20426;-82
2023/07/07 04:16:19;;;;;;;5.78;3.40;;;8.40;99.90;;;;;;4973627;28;20117;-83
2023/07/07 04:21:18;;;;;;;6.18;3.55;;;8.40;99.90;;;;;;4968445;28;20059;-80
2023/07/07 04:23:46;;;;;;;5.10;3.77;;;8.50;99.90;;;;;;4973614;28;20059;-79
2023/07/07 04:26:13;;;;;;;6.53;3.83;;;8.50;99.90;;;;;;4973395;28;20261;-80
2023/07/07 04:28:39;;;;;;;6.35;3.80;;;8.50;99.90;;;;;;4973232;28;20029;-79
2023/07/07 04:31:08;;;;;;;6.78;3.80;;;8.60;99.90;;;;;;4973668;28;20023;-79
2023/07/07 04:33:35;;;;;;;7.50;3.35;;;8.50;99.90;;;;;;4973773;28;20026;-79
2023/07/07 04:36:03;;;;;;;8.70;3.67;;;8.50;99.90;;;;;;4973461;28;20629;-78
2023/07/07 04:38:30;;;;;;;4.20;3.08;;;8.60;99.90;;;;;;4973435;28;20034;-79
2023/07/07 04:41:06;;;;;;;5.28;3.83;;;8.60;99.90;;;;;;4972399;28;20031;-79
2023/07/07 04:43:32;;;;;;;6.80;3.55;;;8.70;99.90;;;;;;4973664;28;20101;-78
2023/07/07 04:45:59;;;;;;;4.72;2.88;;;8.70;99.90;;;;;;4973692;28;20031;-79
2023/07/07 04:48:25;;;;;;;5.22;3.17;;;8.70;99.90;;;;;;4972076;28;20042;-78
2023/07/07 04:50:55;;;;;;;6.78;3.53;;;8.70;99.90;;;;;;4973019;28;20519;-78
2023/07/07 04:53:21;;;;;;;8.45;3.53;;;8.80;99.90;;;;;;4973233;28;20022;-78
2023/07/07 04:55:47;;;;;;;6.22;3.40;;;8.80;99.90;;;;;;4971547;28;20046;-78
2023/07/07 04:58:12;;;;;;;7.15;3.38;;;8.80;99.90;;;;;;4973094;28;20102;-78
2023/07/07 05:00:38;;;;;;;8.00;3.30;;;8.90;99.90;;;;;;4972666;28;20039;-79
2023/07/07 05:03:04;;;;;;;4.90;2.92;;;8.90;99.90;;;;;;4972996;28;20025;-79
2023/07/07 05:05:30;;;;;;;4.95;3.20;;;9.00;99.90;;;;;;4973050;28;20014;-79
2023/07/07 05:07:55;;;;;;;4.68;3.00;;;9.00;99.90;;;;;;4972934;28;20134;-78
2023/07/07 05:10:21;;;;;;;4.57;3.20;;;9.10;99.90;;;;;;4972505;28;20586;-78
2023/07/07 05:12:47;;;;;;;5.38;3.10;;;9.30;99.90;;;;;;4972662;28;20097;-79
2023/07/07 05:15:12;;;;;;;6.38;3.25;;;9.40;99.90;;;;;;4971658;28;20130;-79
2023/07/07 05:17:38;;;;;;;7.93;3.30;;;9.50;99.90;;;;;;4972351;28;20483;-79
2023/07/07 05:20:04;;;;;;;6.72;3.30;;;9.60;99.90;;;;;;4998259;23;20074;-83
2023/07/07 05:22:30;;;;;;;8.95;4.00;;;9.60;99.90;;;;;;4972750;28;20048;-83
2023/07/07 05:24:55;;;;;;;6.47;3.17;;;9.70;99.90;;;;;;4977906;28;20027;-83
2023/07/07 05:27:21;;;;;;;4.63;2.97;;;9.70;99.90;;;;;;4955338;28;20019;-82
2023/07/07 05:29:49;;;;;;;4.72;3.33;;;9.80;99.90;;;;;;4972542;28;20045;-83
2023/07/07 05:32:15;;;;;;;7.65;2.95;;;9.80;99.90;;;;;;4972715;28;20025;-83
2023/07/07 05:34:41;;;;;;;6.63;3.22;;;9.90;99.90;;;;;;4972566;28;20019;-83
2023/07/07 05:37:06;;;;;;;7.47;3.45;;;10.10;99.90;;;;;;4972518;28;20256;-83
2023/07/07 05:39:32;;;;;;;9.10;3.42;;;10.10;99.90;;;;;;4972491;28;20494;-82
2023/07/07 05:41:57;;;;;;;6.88;3.42;;;10.20;99.90;;;;;;4971494;28;20046;-83
2023/07/07 05:44:23;;;;;;;7.45;3.05;;;10.40;99.90;;;;;;4954765;28;20023;-83
2023/07/07 05:46:49;;;;;;;7.93;3.50;;;10.50;99.90;;;;;;4954805;28;20026;-83
2023/07/07 05:49:14;;;;;;;4.93;3.03;;;10.60;99.90;;;;;;4971964;28;20019;-83
2023/07/07 05:51:40;;;;;;;6.57;2.95;;;10.70;99.90;;;;;;4971797;28;20026;-83
2023/07/07 05:54:06;;;;;;;6.32;3.28;;;10.80;99.90;;;;;;4954972;28;20033;-82
2023/07/07 05:56:31;;;;;;;7.65;3.28;;;11.00;99.90;;;;;;4971629;28;20158;-82
2023/07/07 05:58:57;;;;;;;8.45;3.15;;;11.20;99.90;;;;;;4971864;28;20397;-82
2023/07/07 06:01:23;;;;;;;5.80;3.45;;;11.40;99.90;;;;;;4971284;28;20022;-82
2023/07/07 06:03:49;;;;;;;8.35;3.42;;;11.60;99.90;;;;;;4972185;28;20027;-83
2023/07/07 06:06:15;;;;;;;6.65;3.35;;;11.80;99.90;;;;;;4972088;28;20034;-83
2023/07/07 06:08:41;;;;;;;6.72;3.30;;;12.00;99.70;;;;;;4954746;28;20022;-83
2023/07/07 06:11:06;;;;;;;8.93;4.47;;;12.20;99.50;;;;;;4970748;28;20023;-83
2023/07/07 06:13:33;;;;;;;7.22;3.92;;;12.40;99.20;;;;;;4954421;28;20045;-83
2023/07/07 06:15:59;;;;;;;9.32;3.97;;;12.60;98.30;;;;;;4971545;28;20105;-83
2023/07/07 06:18:25;;;;;;;7.95;3.50;;;12.80;98.10;;;;;;4976118;28;20018;-83
2023/07/07 06:20:52;;;;;;;3.90;3.20;;;13.00;97.60;;;;;;4954317;28;20041;-83
2023/07/07 06:23:19;;;;;;;5.38;3.55;;;13.30;97.90;;;;;;4971896;28;20027;-83
2023/07/07 06:25:47;;;;;;;6.75;3.33;;;13.50;98.40;;;;;;4970548;28;20019;-83
2023/07/07 06:28:14;;;;;;;7.60;4.32;;;13.90;97.10;;;;;;4974559;28;20037;-83
2023/07/07 06:30:40;;;;;;;6.22;4.10;;;14.20;97.30;;;;;;4975822;28;20023;-83
2023/07/07 06:33:05;;;;;;;5.35;3.35;;;14.50;95.60;;;;;;4975958;28;20030;-83
2023/07/07 06:35:31;;;;;;;5.28;2.95;;;14.80;94.90;;;;;;4975779;28;20035;-83
2023/07/07 06:37:57;;;;;;;8.88;3.60;;;15.20;93.40;;;;;;4975727;28;20673;-82
2023/07/07 06:40:22;;;;;;;6.72;3.30;;;15.50;94.00;;;;;;4975432;28;20106;-83
2023/07/07 06:42:51;;;;;;;6.93;3.03;;;15.60;92.80;;;;;;4975170;28;20665;-83
2023/07/07 06:45:16;;;;;;;8.35;3.75;;;15.80;92.40;;;;;;4957921;28;20030;-84
2023/07/07 06:47:42;;;;;;;5.95;3.03;;;15.90;93.00;;;;;;4975947;28;20102;-83
2023/07/07 06:50:15;;;;;;;7.05;3.22;;;16.00;92.70;;;;;;5006179;23;20046;-79
2023/07/07 06:52:41;;;;;;;6.43;3.75;;;16.00;92.80;;;;;;4999182;28;20379;-79
2023/07/07 06:55:07;;;;;;;8.13;3.05;;;16.10;93.10;;;;;;4994906;28;20023;-80
2023/07/07 06:57:33;;;;;;;5.95;3.50;;;16.10;93.10;;;;;;4977122;28;20161;-78
2023/07/07 06:59:58;;;;;;;4.70;3.17;;;16.10;92.80;;;;;;4994622;28;20531;-80
2023/07/07 07:02:24;;;;;;;10.50;3.40;;;16.20;92.40;;;;;;4994879;28;20554;-79
2023/07/07 07:04:49;;;;;;;6.18;3.47;;;16.20;93.20;;;;;;4993980;28;20530;-79
2023/07/07 07:07:15;;;;;;;9.98;3.50;;;16.30;93.50;;;;;;4994025;28;20031;-79
2023/07/07 07:09:41;;;;;;;6.18;3.03;;;16.40;93.10;;;;;;4994216;28;20014;-79
2023/07/07 07:12:07;;;;;;;7.70;3.58;;;16.40;92.90;;;;;;4994297;28;20102;-79
2023/07/07 07:14:33;;;;;;;11.52;3.75;;;16.50;93.20;;;;;;4994202;28;20018;-79
2023/07/07 07:16:59;;;;;;;7.93;3.78;;;16.60;93.00;;;;;;4977226;28;20049;-79
2023/07/07 07:19:24;;;;;;;5.85;3.67;;;16.80;92.20;;;;;;4994127;28;20015;-79
2023/07/07 07:21:50;;;;;;;8.25;3.75;;;17.00;92.60;;;;;;4993693;28;20026;-79
2023/07/07 07:24:18;;;;;;;8.98;3.63;;;17.10;92.30;;;;;;4994505;28;20015;-80
2023/07/07 07:26:44;;;;;;;7.70;3.58;;;17.20;92.20;;;;;;4994348;28;20026;-79
2023/07/07 07:29:14;;;;;;;6.47;3.28;;;17.20;92.10;;;;;;4976843;28;20055;-79
2023/07/07 07:31:40;;;;;;;6.18;3.42;;;17.30;91.70;;;;;;4976840;28;20030;-79
2023/07/07 07:34:23;;;;;;;9.60;4.35;;;17.30;91.40;;;;;;4976773;28;20372;-79
2023/07/07 07:36:51;;;;;;;8.13;3.75;;;17.40;90.70;;;;;;4993556;28;20034;-79
2023/07/07 07:39:17;;;;;;;7.68;3.75;;;17.50;91.70;;;;;;4995009;28;20027;-79
2023/07/07 07:41:45;;;;;;;5.50;3.50;;;17.50;91.10;;;;;;4993428;28;20018;-79
2023/07/07 07:44:11;;;;;;;8.23;4.07;;;17.60;91.10;;;;;;4994120;28;20018;-80
2023/07/07 07:46:36;;;;;;;5.90;3.53;;;17.70;90.90;;;;;;4994104;28;20117;-79
2023/07/07 07:49:02;;;;;;;10.35;3.85;;;17.80;90.50;;;;;;4996243;23;20026;-83
2023/07/07 07:51:28;;;;;;;7.45;3.80;;;17.90;90.60;;;;;;4973423;28;20039;-83
2023/07/07 07:53:53;;;;;;;7.78;3.90;;;18.00;91.00;;;;;;4974255;28;20033;-83
2023/07/07 07:56:19;;;;;;;7.75;3.50;;;18.00;90.80;;;;;;4956674;28;20121;-83
2023/07/07 07:58:45;;;;;;;6.70;3.53;;;18.10;90.50;;;;;;4973624;28;20033;-83
2023/07/07 08:01:10;;;;;;;7.93;3.25;;;18.20;89.70;;;;;;4972239;28;20110;-83
2023/07/07 08:03:36;;;;;;;5.57;3.38;;;18.30;89.90;;;;;;4972911;28;20019;-84
2023/07/07 08:06:01;;;;;;;6.40;3.92;;;18.50;89.20;;;;;;4973949;28;20023;-83
2023/07/07 08:08:27;;;;;;;7.60;3.20;;;18.50;88.70;;;;;;4973340;28;20027;-83
2023/07/07 08:10:53;;;;;;;9.27;3.65;;;18.60;88.20;;;;;;4956095;28;20022;-83
2023/07/07 08:13:18;;;;;;;5.15;3.53;;;18.80;90.00;;;;;;4973604;28;20384;-84
2023/07/07 08:15:44;;;;;;;6.68;3.53;;;18.90;87.10;;;;;;4972302;28;20038;-84
2023/07/07 08:18:09;;;;;;;8.18;3.58;;;19.00;88.60;;;;;;4956757;28;20038;-84
2023/07/07 08:20:35;;;;;;;11.95;3.15;;;19.10;86.30;;;;;;4973369;28;20026;-84
2023/07/07 08:23:01;;;;;;;6.55;3.50;;;19.30;86.90;;;;;;4973492;28;20027;-83
2023/07/07 08:25:27;;;;;;;6.22;3.45;;;19.40;86.80;;;;;;4974127;28;20027;-84
2023/07/07 08:27:53;;;;;;;7.20;3.72;;;19.60;87.40;;;;;;4973486;28;20019;-84
2023/07/07 08:30:20;;;;;;;9.35;4.13;;;19.70;85.50;;;;;;4971694;28;20595;-83
2023/07/07 08:32:45;;;;;;;8.35;3.20;;;19.90;83.30;;;;;;4975900;28;20513;-83
2023/07/07 08:35:11;;;;;;;11.77;3.65;;;20.20;81.90;;;;;;4973393;28;20019;-83
2023/07/07 08:37:37;;;;;;;5.57;3.08;;;20.40;81.90;;;;;;4958041;28;20035;-81
2023/07/07 08:40:04;;;;;;;7.25;3.00;;;20.80;79.30;;;;;;4972965;28;21707;-86
2023/07/07 08:42:36;;;;;;;11.45;3.60;;;21.20;81.30;;;;;;4953280;28;20094;-86
2023/07/07 08:45:11;;;;;;;8.52;3.20;;;21.90;75.20;;;;;;4972664;28;20498;-86
2023/07/07 08:47:45;;;;;;;8.77;3.20;;;22.60;70.70;;;;;;4955741;28;20027;-85
2023/07/07 08:50:16;;;;;;;10.18;3.20;;;23.80;67.60;;;;;;5001863;23;20513;-76
2023/07/07 08:52:57;;;;;;;5.50;3.03;;;24.80;64.40;;;;;;4992431;28;20023;-80
2023/07/07 08:55:43;;;;;;;;;;;25.80;60.70;;;;;;4992702;28;20021;-80
2023/07/07 08:58:27;;;;;;;5.68;2.95;;;26.40;59.00;;;;;;4986263;28;19955;-80
2023/07/07 09:00:59;;;;;;;8.18;2.67;;;27.20;55.90;;;;;;4990975;28;20018;-79
2023/07/07 09:03:57;;;;;;;7.75;2.90;;;28.20;54.60;;;;;;4992162;28;20102;-79
2023/07/07 09:06:23;;;;;;;4.57;2.38;;;28.30;50.00;;;;;;4967614;28;20143;-80
2023/07/07 09:09:12;;;;;;;5.63;2.83;;;28.60;51.90;;;;;;4974180;28;20714;-80
2023/07/07 09:12:02;;;;;;;5.85;2.55;;;29.40;52.30;;;;;;4991261;28;20094;-80
2023/07/07 09:14:28;;;;;;;4.97;2.33;;;30.00;48.60;;;;;;4991910;28;20019;-80
2023/07/07 09:17:04;;;;;;;5.25;2.60;;;30.30;46.40;;;;;;4991059;28;20109;-80
2023/07/07 09:19:36;;;;;;;5.80;2.47;;;30.70;46.40;;;;;;4972478;28;20543;-82
2023/07/07 09:22:16;;;;;;;8.35;2.88;;;31.00;44.10;;;;;;4985799;28;20107;-81
2023/07/07 09:24:58;;;;;;;5.38;2.20;;;31.80;43.40;;;;;;4985455;28;20022;-81
2023/07/07 09:27:31;;;;;;;6.20;2.58;;;31.60;42.10;;;;;;4984800;28;20010;-81
2023/07/07 09:30:21;;;;;;;9.50;3.08;;;31.90;43.20;;;;;;4990307;28;20117;-81
2023/07/07 09:32:48;;;;;;;6.83;3.07;;;32.70;41.20;;;;;;4984570;28;20034;-81
2023/07/07 09:35:14;;;;;;;7.20;2.72;;;32.60;39.10;;;;;;4991342;28;20256;-82
2023/07/07 09:37:50;;;;;;;4.20;2.67;;;32.80;38.90;;;;;;4991001;28;20046;-79
2023/07/07 09:40:35;;;;;;;3.75;2.40;;;32.30;42.70;;;;;;4990003;28;20050;-80
2023/07/07 09:43:12;;;;;;;5.85;2.65;;;32.40;41.00;;;;;;4990900;28;20049;-78
2023/07/07 09:46:12;;;;;;;4.45;2.53;;;33.00;40.00;;;;;;4985659;28;20014;-78
2023/07/07 09:49:01;;;;;;;8.15;2.85;;;33.90;42.20;;;;;;4987278;28;20026;-80
2023/07/07 09:51:42;;;;;;;4.22;2.03;;;34.30;36.50;;;;;;4956896;28;20055;-86
2023/07/07 09:54:11;;;;;;;5.85;3.03;;;34.50;37.10;;;;;;4952054;28;20030;-85
2023/07/07 09:57:00;;;;;;;3.72;2.47;;;34.40;37.10;;;;;;4951015;28;20031;-87
2023/07/07 09:59:35;;;;;;;5.00;2.63;;;34.40;36.00;;;;;;4951167;28;20031;-85
2023/07/07 10:02:08;;;;;;;8.30;3.03;;;34.80;36.50;;;;;;4956999;28;20034;-86
2023/07/07 10:04:34;;;;;;;4.65;2.75;;;34.30;36.80;;;;;;4963713;28;20044;-86
2023/07/07 10:07:06;;;;;;;5.35;2.50;;;34.60;36.20;;;;;;4965420;28;20044;-86
2023/07/07 10:09:31;;;;;;;4.15;2.42;;;35.30;36.70;;;;;;4967268;28;20031;-85
2023/07/07 10:11:58;;;;;;;4.93;2.40;;;34.70;34.80;;;;;;4952813;28;20558;-87
2023/07/07 10:14:27;;;;;;;8.35;2.40;;;35.20;35.50;;;;;;4951579;28;20080;-86
2023/07/07 10:17:01;;;;;;;5.07;2.22;;;35.80;36.40;;;;;;4951471;28;20035;-86
2023/07/07 10:19:27;;;;;;;8.60;3.95;;;36.40;33.10;;;;;;4951449;28;20027;-84
2023/07/07 10:21:53;;;;;;;6.05;2.55;;;36.40;34.60;;;;;;4958031;28;20042;-87
2023/07/07 10:24:19;;;;;;;4.43;2.13;;;35.90;34.80;;;;;;4952921;28;20020;-86
2023/07/07 10:26:47;;;;;;;5.70;2.53;;;35.40;34.30;;;;;;4952996;28;20039;-88
2023/07/07 10:29:23;;;;;;;3.40;2.20;;;35.70;32.90;;;;;;4952653;28;20023;-85
2023/07/07 10:31:51;;;;;;;13.25;2.72;;;35.00;34.40;;;;;;4952722;28;20034;-85
2023/07/07 10:34:22;;;;;;;3.70;2.30;;;34.80;34.60;;;;;;4952183;28;20046;-87
2023/07/07 10:36:48;;;;;;;3.60;2.30;;;36.10;34.60;;;;;;4951857;28;20024;-87
2023/07/07 10:39:14;;;;;;;5.57;2.58;;;37.10;32.70;;;;;;4952127;28;20030;-87
2023/07/07 10:41:39;;;;;;;5.82;2.20;;;37.30;31.60;;;;;;4955656;28;20086;-89
2023/07/07 10:44:07;;;;;;;5.70;2.40;;;37.00;31.60;;;;;;4950674;28;20038;-87
2023/07/07 10:46:33;;;;;;;5.47;2.42;;;37.10;33.70;;;;;;4952182;28;20023;-83
2023/07/07 10:52:11;;;;;;;4.43;2.28;;;37.10;29.90;;;;;;4987632;28;20094;-78
2023/07/07 10:55:14;;;;;;;3.17;2.15;;;38.60;29.80;;;;;;4954293;28;20046;-78
2023/07/07 10:58:09;;;;;;;3.90;2.28;;;37.70;29.40;;;;;;4985652;28;20483;-79
2023/07/07 11:00:56;;;;;;;4.63;2.10;;;39.10;28.00;;;;;;4931358;28;20031;-77
2023/07/07 11:03:50;;;;;;;9.13;2.50;;;39.40;27.10;;;;;;4969677;28;20079;-78
2023/07/07 11:06:34;;;;;;;4.38;2.13;;;38.60;27.40;;;;;;4968891;28;20035;-79
2023/07/07 11:09:34;;;;;;;6.70;2.08;;;38.20;27.90;;;;;;4971405;28;20038;-79
2023/07/07 11:12:16;;;;;;;3.65;2.40;;;39.20;30.00;;;;;;4968398;28;20106;-80
2023/07/07 11:15:09;;;;;;;2.83;2.33;;;39.80;26.40;;;;;;4950956;28;20477;-78
2023/07/07 11:18:12;;;;;;;3.58;2.70;;;39.90;26.80;;;;;;4967350;28;20027;-78
2023/07/07 11:20:49;;;;;;;4.63;3.42;;;39.30;24.90;;;;;;4971160;28;20027;-77
2023/07/07 11:23:20;;;;;;;5.50;3.70;;;39.50;24.80;;;;;;4949231;28;20020;-77
2023/07/07 11:26:04;;;;;;;6.13;3.40;;;39.70;25.00;;;;;;4968819;28;20019;-77
2023/07/07 11:28:50;;;;;;;3.80;2.92;;;40.40;28.30;;;;;;4973744;28;20023;-78
2023/07/07 11:31:50;;;;;;;5.85;4.15;;;40.10;27.50;;;;;;4968369;28;20101;-77
2023/07/07 11:34:42;;;;;;;6.15;3.90;;;39.50;27.20;;;;;;4966809;28;20023;-77
2023/07/07 11:37:42;;;;;;;8.05;4.00;;;39.20;25.30;;;;;;4974520;28;20038;-78
2023/07/07 11:40:42;;;;;;;5.57;3.70;;;39.40;27.30;;;;;;4972458;28;20236;-78
2023/07/07 11:43:24;;;;;;;4.50;3.15;;;39.40;27.00;;;;;;4973580;28;20113;-77
2023/07/07 11:45:59;;;;;;;5.40;3.08;;;39.40;25.80;;;;;;4974237;28;20035;-77
2023/07/07 11:51:35;;;;;;;5.30;3.00;;;39.80;25.60;;;;;;5011059;28;20053;-86
2023/07/07 11:54:17;;;;;;;4.47;3.28;;;39.70;26.40;;;;;;5011645;28;20030;-87
2023/07/07 11:56:51;;;;;;;4.85;3.45;;;40.00;25.20;;;;;;5012111;28;20025;-85
2023/07/07 11:59:20;;;;;;;4.97;3.08;;;40.30;26.60;;;;;;5011730;28;20037;-83
2023/07/07 12:01:49;;;;;;;3.97;3.20;;;41.30;27.20;;;;;;5007179;28;20065;-85
2023/07/07 12:04:27;;;;;;;5.23;3.53;;;40.50;25.70;;;;;;5013153;28;20479;-82
2023/07/07 12:07:00;;;;;;;4.85;3.20;;;40.50;25.10;;;;;;5006160;28;20044;-85
2023/07/07 12:09:52;;;;;;;6.80;3.50;;;40.10;26.20;;;;;;5004268;28;20367;-84
2023/07/07 12:12:44;;;;;;;10.65;3.58;;;40.50;27.10;;;;;;5003471;28;20046;-85
2023/07/07 12:15:24;;;;;;;8.43;4.18;;;41.50;25.40;;;;;;5001995;28;20109;-85
2023/07/07 12:18:01;;;;;;;4.88;3.17;;;41.10;26.50;;;;;;5004638;28;20026;-84
2023/07/07 12:20:32;;;;;;;5.57;3.17;;;40.80;25.70;;;;;;5002000;28;20088;-83
2023/07/07 12:23:01;;;;;;;4.82;3.00;;;39.80;27.90;;;;;;5007282;28;20057;-84
2023/07/07 12:25:29;;;;;;;4.35;2.83;;;39.70;25.90;;;;;;5005765;28;20042;-83
2023/07/07 12:27:56;;;;;;;5.80;3.00;;;40.30;29.30;;;;;;5004892;28;20030;-84
2023/07/07 12:30:30;;;;;;;4.00;3.03;;;40.30;25.50;;;;;;5006551;28;20050;-84
2023/07/07 12:32:57;;;;;;;5.85;3.25;;;40.40;25.30;;;;;;5002649;28;20033;-84
2023/07/07 12:35:36;;;;;;;7.18;3.75;;;40.90;27.20;;;;;;5007469;28;20018;-85
2023/07/07 12:38:25;;;;;;;3.60;3.00;;;40.90;24.50;;;;;;5003917;28;20073;-84
2023/07/07 12:40:58;;;;;;;9.13;3.17;;;40.70;24.90;;;;;;5005400;28;20095;-85
2023/07/07 12:43:40;;;;;;;5.90;3.42;;;40.20;23.80;;;;;;5008131;28;20483;-83
2023/07/07 12:46:22;;;;;;;5.20;3.35;;;40.40;25.70;;;;;;5020978;28;20409;-84
2023/07/07 12:48:47;;;;;;;5.22;3.53;;;40.70;24.80;;;;;;5011291;28;20014;-85
2023/07/07 12:51:16;;;;;;;6.65;3.53;;;39.90;24.80;;;;;;5011325;28;20092;-88
2023/07/07 12:53:45;;;;;;;7.07;3.75;;;40.20;25.90;;;;;;5011772;28;20077;-82
2023/07/07 12:56:11;;;;;;;5.75;3.20;;;40.00;25.20;;;;;;5011457;28;20076;-83
2023/07/07 12:58:37;;;;;;;10.60;4.10;;;40.00;25.40;;;;;;5011590;28;20089;-83
2023/07/07 13:01:39;;;;;;;6.63;3.50;;;39.80;26.60;;;;;;5011687;28;20594;-86
2023/07/07 13:04:07;;;;;;;6.45;4.03;;;39.30;24.70;;;;;;5009967;28;20021;-84
2023/07/07 13:06:57;;;;;;;4.78;3.83;;;39.90;25.40;;;;;;5008771;28;20554;-85
2023/07/07 13:09:25;;;;;;;5.43;3.83;;;39.60;24.10;;;;;;5010482;28;20395;-85
2023/07/07 13:11:57;;;;;;;4.25;3.85;;;39.70;24.00;;;;;;5010859;28;20089;-84
2023/07/07 13:14:30;;;;;;;5.45;3.70;;;39.80;24.50;;;;;;5005207;28;20421;-85
2023/07/07 13:16:57;;;;;;;5.63;3.95;;;39.50;24.00;;;;;;5011395;28;20037;-86